Time;durP1;ratioP1;P1;durP2;ratioP2;P2;SDS_P1;SDS_P2;PMS_P1;PMS_P2;Temp;Humidity;BMP_temperature;BMP_pressure;BME280_temperature;BME280_humidity;BME280_pressure;Samples;Min_cycle;Max_cycle;Signal;HPM_P1;HPM_P2
2021/09/25 00:00:30;;;;;;;;;;;;;;;22.30;46.05;95883.53;1044249;28;1360;-58
2021/09/25 00:01:00;;;;;;;;;;;;;;;22.29;46.03;95882.00;1040733;28;1977;-58
2021/09/25 00:01:31;;;;;;;;;;;;;;;22.28;46.28;95875.13;1042117;28;2204;-58
2021/09/25 00:02:01;;;;;;;;;;;;;;;22.28;45.90;95879.59;1042478;28;1567;-58
2021/09/25 00:02:31;;;;;;;;;;;;;;;22.27;45.98;95878.84;1044058;28;1210;-55
2021/09/25 00:03:02;;;;;;;;;;;;;;;22.27;46.25;95884.13;1043741;28;1005;-59
2021/09/25 00:03:33;;;;;;;;;;;;;;;22.25;45.97;95878.34;1044922;28;784;-59
2021/09/25 00:04:03;;;;;;;;;;;;;;;22.26;46.25;95887.81;1044517;28;1193;-59
2021/09/25 00:04:33;;;;;;;;;;;;;;;22.25;46.05;95880.97;1043992;28;1550;-59
2021/09/25 00:05:04;;;;;;;;;;;;;;;22.28;45.86;95875.13;1044525;28;1414;-58
2021/09/25 00:05:35;;;;;;;;;;;;;;;22.27;46.21;95875.41;1044645;28;1212;-56
2021/09/25 00:06:06;;;;;;;;;;;;;;;22.30;46.25;95885.41;1041669;28;2266;-58
2021/09/25 00:06:36;;;;;;;;;;;;;;;22.27;45.97;95876.22;1044869;28;963;-57
2021/09/25 00:07:06;;;;;;;;;;;;;;;22.29;46.18;95883.84;1044415;28;1041;-57
2021/09/25 00:07:37;;;;;;;;;;;;;;;22.26;46.19;95882.53;1043242;28;2043;-59
2021/09/25 00:08:07;;;;;;;;;;;;;;;22.27;46.00;95878.06;1044326;28;1306;-57
2021/09/25 00:08:37;;;;;;;;;;;;;;;22.26;46.30;95881.75;1044866;28;1241;-59
2021/09/25 00:09:07;;;;;;;;;;;;;;;22.27;46.25;95883.34;1044324;28;974;-57
2021/09/25 00:09:40;;;;;;;;;;;;;;;22.26;46.40;95879.91;1043968;28;1592;-58
2021/09/25 00:10:11;;;;;;;;;;;;;;;22.27;45.97;95880.69;1044280;28;1084;-58
2021/09/25 00:10:41;;;;;;;;;;;;;;;22.30;46.11;95875.63;1043728;28;2251;-59
2021/09/25 00:11:11;;;;;;;;;;;;;;;22.29;46.13;95883.84;1041250;28;1838;-59
2021/09/25 00:11:42;;;;;;;;;;;;;;;22.28;46.07;95884.88;1041030;28;1457;-58
2021/09/25 00:12:13;;;;;;;;;;;;;;;22.27;46.46;95884.13;1044125;28;1147;-59
2021/09/25 00:12:44;;;;;;;;;;;;;;;22.28;46.49;95884.88;1043049;28;2244;-58
2021/09/25 00:13:14;;;;;;;;;;;;;;;22.26;46.23;95887.81;1032104;28;1575;-59
2021/09/25 00:13:44;;;;;;;;;;;;;;;22.25;46.20;95883.63;1035702;28;1756;-59
2021/09/25 00:14:15;;;;;;;;;;;;;;;22.26;46.46;95887.03;1031998;28;1612;-56
2021/09/25 00:14:45;;;;;;;;;;;;;;;22.24;46.06;95884.66;1035730;28;1266;-58
2021/09/25 00:15:16;;;;;;;;;;;;;;;22.24;46.24;95884.66;1039909;28;1161;-55
2021/09/25 00:15:46;;;;;;;;;;;;;;;22.25;46.28;95880.97;1044418;28;1116;-58
2021/09/25 00:16:17;;;;;;;;;;;;;;;22.26;46.37;95882.53;1043394;28;2036;-59
2021/09/25 00:16:47;;;;;;;;;;;;;;;22.25;46.21;95877.53;1041980;28;963;-56
2021/09/25 00:17:17;;;;;;;;;;;;;;;22.25;46.29;95877.53;1044558;28;1102;-57
2021/09/25 00:17:48;;;;;;;;;;;;;;;22.26;46.52;95877.25;1043190;28;1100;-57
2021/09/25 00:18:18;;;;;;;;;;;;;;;22.27;46.29;95881.50;1044682;28;1072;-58
2021/09/25 00:18:48;;;;;;;;;;;;;;;22.27;46.44;95875.41;1044456;28;1375;-58
2021/09/25 00:19:18;;;;;;;;;;;;;;;22.26;46.16;95873.81;1044497;28;1164;-57
2021/09/25 00:19:49;;;;;;;;;;;;;;;22.25;46.07;95878.34;1043256;28;1616;-59
2021/09/25 00:20:19;;;;;;;;;;;;;;;22.25;46.50;95874.91;1044189;28;1250;-57
2021/09/25 00:20:50;;;;;;;;;;;;;;;22.25;46.15;95874.91;1044392;28;1899;-56
2021/09/25 00:21:20;;;;;;;;;;;;;;;22.25;46.07;95880.97;1043775;28;1894;-57
2021/09/25 00:21:51;;;;;;;;;;;;;;;22.25;46.38;95875.69;1044595;28;1032;-59
2021/09/25 00:22:21;;;;;;;;;;;;;;;22.24;46.21;95876.75;1044370;28;1122;-60
2021/09/25 00:22:51;;;;;;;;;;;;;;;22.24;46.27;95874.09;1044330;28;1060;-56
2021/09/25 00:23:22;;;;;;;;;;;;;;;22.25;46.33;95875.69;1044494;28;1202;-56
2021/09/25 00:23:52;;;;;;;;;;;;;;;22.27;46.19;95870.13;1044171;28;1476;-58
2021/09/25 00:24:23;;;;;;;;;;;;;;;22.26;46.48;95882.53;1044567;28;1138;-57
2021/09/25 00:24:53;;;;;;;;;;;;;;;22.26;46.47;95879.09;1044478;28;1174;-58
2021/09/25 00:25:23;;;;;;;;;;;;;;;22.26;46.20;95876.47;1044812;28;1171;-58
2021/09/25 00:25:53;;;;;;;;;;;;;;;22.26;46.20;95881.75;1044595;28;1033;-58
2021/09/25 00:26:26;;;;;;;;;;;;;;;22.26;46.16;95877.25;1044506;28;1260;-58
2021/09/25 00:26:57;;;;;;;;;;;;;;;22.26;46.21;95873.81;1043382;28;2047;-59
2021/09/25 00:27:28;;;;;;;;;;;;;;;22.25;46.55;95882.81;1043829;28;1199;-58
2021/09/25 00:27:58;;;;;;;;;;;;;;;22.25;46.30;95877.53;1043723;28;1064;-56
2021/09/25 00:28:28;;;;;;;;;;;;;;;22.25;46.28;95872.25;1039700;28;1580;-57
2021/09/25 00:28:59;;;;;;;;;;;;;;;22.24;46.30;95882.03;1044206;28;1050;-56
2021/09/25 00:29:29;;;;;;;;;;;;;;;22.23;46.58;95877.84;1044451;28;1403;-57
2021/09/25 00:29:59;;;;;;;;;;;;;;;22.26;46.19;95871.97;1042980;28;1808;-57
2021/09/25 00:30:30;;;;;;;;;;;;;;;22.25;46.38;95873.06;1043534;28;2259;-56
2021/09/25 00:31:00;;;;;;;;;;;;;;;22.25;46.42;95872.25;1044471;28;1193;-57
2021/09/25 00:31:30;;;;;;;;;;;;;;;22.25;46.29;95873.06;1044458;28;1383;-58
2021/09/25 00:32:01;;;;;;;;;;;;;;;22.25;46.52;95872.25;1043548;28;1859;-57
2021/09/25 00:32:32;;;;;;;;;;;;;;;22.24;46.25;95874.09;1043752;28;1477;-56
2021/09/25 00:33:02;;;;;;;;;;;;;;;22.23;46.28;95872.56;1039069;28;1436;-59
2021/09/25 00:33:32;;;;;;;;;;;;;;;22.24;46.22;95874.09;1040358;28;1156;-58
2021/09/25 00:34:03;;;;;;;;;;;;;;;22.24;46.29;95873.31;1039737;28;1243;-58
2021/09/25 00:34:33;;;;;;;;;;;;;;;22.23;46.38;95872.56;1039975;28;1420;-59
2021/09/25 00:35:04;;;;;;;;;;;;;;;22.24;46.28;95878.59;1044408;28;1114;-57
2021/09/25 00:35:34;;;;;;;;;;;;;;;22.22;46.60;95868.31;1044295;28;1605;-59
2021/09/25 00:36:04;;;;;;;;;;;;;;;22.23;46.62;95869.13;1042847;28;2086;-57
2021/09/25 00:36:35;;;;;;;;;;;;;;;22.22;46.44;95881.53;1043941;28;1731;-59
2021/09/25 00:37:05;;;;;;;;;;;;;;;22.23;46.58;95877.03;1043567;28;2028;-57
2021/09/25 00:37:36;;;;;;;;;;;;;;;22.23;46.59;95874.41;1044822;28;1033;-58
2021/09/25 00:38:06;;;;;;;;;;;;;;;22.23;46.37;95874.41;1044238;28;1135;-58
2021/09/25 00:38:37;;;;;;;;;;;;;;;22.24;46.42;95874.09;1044219;28;1297;-59
2021/09/25 00:39:07;;;;;;;;;;;;;;;22.24;46.43;95874.09;1048219;28;1092;-58
2021/09/25 00:39:37;;;;;;;;;;;;;;;22.24;46.53;95876.75;1048635;28;800;-55
2021/09/25 00:40:11;;;;;;;;;;;;;;;22.23;46.50;95877.84;1048578;28;1260;-58
2021/09/25 00:40:41;;;;;;;;;;;;;;;22.23;46.42;95877.84;1051933;28;1194;-55
2021/09/25 00:41:12;;;;;;;;;;;;;;;22.24;46.56;95873.31;1048382;28;1910;-58
2021/09/25 00:41:42;;;;;;;;;;;;;;;22.24;46.48;95870.69;1048251;28;1249;-58
2021/09/25 00:42:12;;;;;;;;;;;;;;;22.23;46.59;95877.84;1048158;28;2073;-58
2021/09/25 00:42:43;;;;;;;;;;;;;;;22.23;46.60;95880.47;1048792;28;1689;-56
2021/09/25 00:43:13;;;;;;;;;;;;;;;22.22;46.58;95876.25;1047467;28;1632;-57
2021/09/25 00:43:43;;;;;;;;;;;;;;;22.22;46.65;95884.16;1048459;28;1044;-55
2021/09/25 00:44:14;;;;;;;;;;;;;;;22.22;46.44;95881.53;1048018;28;1127;-58
2021/09/25 00:44:44;;;;;;;;;;;;;;;22.21;46.72;95882.59;1043992;28;1175;-58
2021/09/25 00:45:18;;;;;;;;;;;;;;;22.23;46.46;95883.13;1044551;28;1193;-57
2021/09/25 00:45:49;;;;;;;;;;;;;;;22.24;46.44;95881.25;1044496;28;1150;-58
2021/09/25 00:46:20;;;;;;;;;;;;;;;22.26;46.48;95885.19;1044633;28;1304;-55
2021/09/25 00:46:50;;;;;;;;;;;;;;;22.24;46.54;95886.53;1048116;28;1506;-58
2021/09/25 00:47:20;;;;;;;;;;;;;;;22.24;46.39;95884.66;1040095;28;2045;-59
2021/09/25 00:47:51;;;;;;;;;;;;;;;22.25;46.48;95878.34;1042990;28;1725;-58
2021/09/25 00:48:21;;;;;;;;;;;;;;;22.27;46.40;95883.34;1044166;28;1103;-58
2021/09/25 00:48:52;;;;;;;;;;;;;;;22.26;46.56;95890.47;1043252;28;2255;-56
2021/09/25 00:49:22;;;;;;;;;;;;;;;22.25;46.62;95880.97;1044450;28;1193;-56
2021/09/25 00:49:52;;;;;;;;;;;;;;;22.24;46.39;95882.03;1044699;28;1025;-58
2021/09/25 00:50:23;;;;;;;;;;;;;;;22.25;46.41;95882.81;1044871;28;1116;-58
2021/09/25 00:50:53;;;;;;;;;;;;;;;22.24;46.49;95875.97;1051084;28;1525;-56
2021/09/25 00:51:23;;;;;;;;;;;;;;;22.23;46.71;95882.31;1052570;28;1159;-58
2021/09/25 00:51:54;;;;;;;;;;;;;;;22.24;46.46;95883.88;1052390;28;1048;-58
2021/09/25 00:52:24;;;;;;;;;;;;;;;22.23;46.84;95883.13;1047094;28;2297;-58
2021/09/25 00:52:54;;;;;;;;;;;;;;;22.23;46.73;95885.75;1048234;28;1343;-57
2021/09/25 00:53:25;;;;;;;;;;;;;;;22.23;46.48;95883.13;1048018;28;1197;-58
2021/09/25 00:53:55;;;;;;;;;;;;;;;22.24;46.59;95881.25;1048297;28;1209;-59
2021/09/25 00:54:25;;;;;;;;;;;;;;;22.24;46.42;95883.88;1051830;28;1130;-59
2021/09/25 00:54:56;;;;;;;;;;;;;;;22.24;46.58;95883.88;1044228;28;1173;-57
2021/09/25 00:55:26;;;;;;;;;;;;;;;22.23;46.70;95882.31;1044833;28;972;-54
2021/09/25 00:55:56;;;;;;;;;;;;;;;22.23;46.51;95882.31;1044432;28;1186;-57
2021/09/25 00:56:27;;;;;;;;;;;;;;;22.22;46.78;95881.53;1044630;28;1275;-58
2021/09/25 00:56:59;;;;;;;;;;;;;;;22.24;46.64;95878.59;1044084;28;1033;-55
2021/09/25 00:57:29;;;;;;;;;;;;;;;22.22;46.85;95880.72;1043817;28;1868;-57
2021/09/25 00:58:00;;;;;;;;;;;;;;;22.21;46.87;95879.97;1044229;28;1013;-58
2021/09/25 00:58:31;;;;;;;;;;;;;;;22.21;46.78;95879.19;1044639;28;1379;-57
2021/09/25 00:59:01;;;;;;;;;;;;;;;22.21;46.48;95879.19;1047135;28;1641;-59
2021/09/25 00:59:31;;;;;;;;;;;;;;;22.21;46.62;95877.31;1048419;28;788;-57
2021/09/25 01:00:03;;;;;;;;;;;;;;;22.21;46.64;95879.97;1048290;28;1044;-56
2021/09/25 01:00:33;;;;;;;;;;;;;;;22.22;46.90;95880.72;1048746;28;1151;-58
2021/09/25 01:01:04;;;;;;;;;;;;;;;22.21;46.67;95877.31;1051813;28;1969;-59
2021/09/25 01:01:34;;;;;;;;;;;;;;;22.21;46.71;95879.19;1048323;28;1517;-58
2021/09/25 01:02:04;;;;;;;;;;;;;;;22.21;46.60;95879.19;1046979;28;2066;-58
2021/09/25 01:02:35;;;;;;;;;;;;;;;22.21;46.78;95881.81;1043319;28;737;-56
2021/09/25 01:03:05;;;;;;;;;;;;;;;22.22;46.82;95875.44;1047453;28;1117;-55
2021/09/25 01:03:36;;;;;;;;;;;;;;;22.22;46.59;95886.81;1044222;28;1398;-56
2021/09/25 01:04:06;;;;;;;;;;;;;;;22.22;46.99;95876.25;1044441;28;1101;-58
2021/09/25 01:04:40;;;;;;;;;;;;;;;22.22;46.90;95880.72;1044092;28;1006;-59
2021/09/25 01:05:10;;;;;;;;;;;;;;;22.22;46.50;95876.25;1052281;28;1698;-57
2021/09/25 01:05:44;;;;;;;;;;;;;;;22.22;46.82;95878.88;1044522;28;1570;-58
2021/09/25 01:06:14;;;;;;;;;;;;;;;22.22;46.56;95878.88;1048338;28;1304;-58
2021/09/25 01:06:45;;;;;;;;;;;;;;;22.22;47.05;95875.44;1043587;28;2279;-58
2021/09/25 01:07:15;;;;;;;;;;;;;;;22.22;46.73;95878.88;1039396;28;2093;-58
2021/09/25 01:07:50;;;;;;;;;;;;;;;22.20;46.66;95878.38;1042822;28;2034;-59
2021/09/25 01:08:24;;;;;;;;;;;;;;;22.20;46.67;95881.03;1040429;28;1358;-55
2021/09/25 01:08:57;;;;;;;;;;;;;;;22.20;46.73;95874.94;1041071;28;1669;-58
2021/09/25 01:09:48;;;;;;;;;;;;;;;22.20;46.70;95872.31;1038858;28;1238;-58
2021/09/25 01:10:38;;;;;;;;;;;;;;;22.20;46.70;95872.31;1043339;28;2153;-57
2021/09/25 01:11:09;;;;;;;;;;;;;;;22.20;46.90;95872.31;1044656;28;1073;-56
2021/09/25 01:11:39;;;;;;;;;;;;;;;22.20;46.51;95873.09;1044548;28;969;-59
2021/09/25 01:12:09;;;;;;;;;;;;;;;22.20;46.81;95875.75;1042754;28;1843;-57
2021/09/25 01:12:40;;;;;;;;;;;;;;;22.21;46.71;95874.69;1035716;28;1110;-59
2021/09/25 01:13:17;;;;;;;;;;;;;;;22.20;46.66;95870.47;1039086;28;1760;-57
2021/09/25 01:13:49;;;;;;;;;;;;;;;22.20;46.76;95873.09;1037150;28;1487;-57
2021/09/25 01:14:39;;;;;;;;;;;;;;;22.20;46.76;95873.09;1037634;28;1052;-58
2021/09/25 01:15:14;;;;;;;;;;;;;;;22.24;46.63;95871.47;1041967;28;1069;-59
2021/09/25 01:15:44;;;;;;;;;;;;;;;22.23;46.92;95872.56;1049137;28;1474;-55
2021/09/25 01:16:15;;;;;;;;;;;;;;;22.21;46.90;95874.69;1052754;28;1240;-57
2021/09/25 01:16:46;;;;;;;;;;;;;;;22.21;46.65;95869.41;1052647;28;1032;-56
2021/09/25 01:17:16;;;;;;;;;;;;;;;22.21;46.67;95873.91;1046125;28;1928;-54
2021/09/25 01:17:53;;;;;;;;;;;;;;;22.21;46.74;95874.69;1036254;28;1206;-58
2021/09/25 01:18:30;;;;;;;;;;;;;;;22.20;46.96;95874.94;1040136;28;1313;-56
2021/09/25 01:19:09;;;;;;;;;;;;;;;22.20;46.72;95877.59;1043005;28;1182;-58
2021/09/25 01:19:55;;;;;;;;;;;;;;;22.18;46.66;95875.22;1039690;28;1233;-56
2021/09/25 01:20:27;;;;;;;;;;;;;;;22.19;47.06;95870.75;1043495;28;1292;-57
2021/09/25 01:21:06;;;;;;;;;;;;;;;22.18;46.95;95869.16;1041139;28;1923;-59
2021/09/25 01:21:39;;;;;;;;;;;;;;;22.19;47.13;95870.75;1037945;28;836;-57
2021/09/25 01:22:15;;;;;;;;;;;;;;;22.20;46.96;95872.31;1038326;28;2048;-58
2021/09/25 01:23:05;;;;;;;;;;;;;;;22.20;46.77;95867.03;1043999;28;1267;-56
2021/09/25 01:23:55;;;;;;;;;;;;;;;22.19;46.77;95871.53;1040599;28;1270;-57
2021/09/25 01:24:39;;;;;;;;;;;;;;;22.22;46.86;95872.81;1035353;28;1368;-56
2021/09/25 01:25:29;;;;;;;;;;;;;;;22.20;46.86;95867.81;1034404;28;1209;-56
2021/09/25 01:26:00;;;;;;;;;;;;;;;22.19;46.81;95871.53;1044002;28;1065;-57
2021/09/25 01:26:30;;;;;;;;;;;;;;;22.19;46.76;95871.53;1044738;28;1212;-58
2021/09/25 01:27:01;;;;;;;;;;;;;;;22.21;46.84;95864.13;1053090;28;1379;-56
2021/09/25 01:27:31;;;;;;;;;;;;;;;22.21;46.97;95868.63;1046562;28;1973;-58
2021/09/25 01:28:02;;;;;;;;;;;;;;;22.20;46.72;95869.66;1048721;28;1041;-56
2021/09/25 01:28:32;;;;;;;;;;;;;;;22.20;47.04;95865.19;1044438;28;1540;-58
2021/09/25 01:29:03;;;;;;;;;;;;;;;22.22;47.03;95865.69;1040862;28;1061;-58
2021/09/25 01:29:33;;;;;;;;;;;;;;;22.21;46.96;95864.13;1049118;28;1360;-58
2021/09/25 01:30:05;;;;;;;;;;;;;;;22.19;46.71;95866.25;1049028;28;1061;-56
2021/09/25 01:30:35;;;;;;;;;;;;;;;22.19;46.74;95862.81;1053129;28;1123;-59
2021/09/25 01:31:06;;;;;;;;;;;;;;;22.20;46.94;95867.03;1052766;28;1080;-56
2021/09/25 01:31:37;;;;;;;;;;;;;;;22.18;46.90;95862.03;1045622;28;1154;-55
2021/09/25 01:32:07;;;;;;;;;;;;;;;22.18;47.05;95869.94;1044940;28;1037;-58
2021/09/25 01:32:37;;;;;;;;;;;;;;;22.18;47.17;95867.31;1042714;28;2585;-58
2021/09/25 01:33:08;;;;;;;;;;;;;;;22.19;46.73;95871.53;1044976;28;1060;-58
2021/09/25 01:33:39;;;;;;;;;;;;;;;22.18;47.02;95869.94;1045439;28;946;-55
2021/09/25 01:34:10;;;;;;;;;;;;;;;22.20;47.05;95873.09;1045331;28;1163;-59
2021/09/25 01:34:40;;;;;;;;;;;;;;;22.19;46.77;95868.09;1044551;28;1022;-58
2021/09/25 01:35:11;;;;;;;;;;;;;;;22.19;47.13;95866.25;1053157;28;1343;-56
2021/09/25 01:35:41;;;;;;;;;;;;;;;22.19;47.19;95868.91;1053125;28;1201;-58
2021/09/25 01:36:12;;;;;;;;;;;;;;;22.19;46.94;95868.91;1053171;28;1299;-55
2021/09/25 01:36:42;;;;;;;;;;;;;;;22.20;46.92;95867.03;1052884;28;1186;-59
2021/09/25 01:37:12;;;;;;;;;;;;;;;22.19;46.91;95866.25;1043931;28;2016;-57
2021/09/25 01:37:44;;;;;;;;;;;;;;;22.19;46.88;95871.53;1044632;28;907;-57
2021/09/25 01:38:14;;;;;;;;;;;;;;;22.19;46.96;95865.47;1045083;28;1182;-57
2021/09/25 01:38:44;;;;;;;;;;;;;;;22.19;46.92;95868.91;1044855;28;1358;-57
2021/09/25 01:39:15;;;;;;;;;;;;;;;22.20;46.81;95867.81;1045134;28;1225;-59
2021/09/25 01:39:45;;;;;;;;;;;;;;;22.21;46.87;95869.41;1045380;28;1126;-59
2021/09/25 01:40:16;;;;;;;;;;;;;;;22.18;47.05;95863.88;1053117;28;1600;-59
2021/09/25 01:40:46;;;;;;;;;;;;;;;22.19;46.95;95868.91;1047684;28;2468;-59
2021/09/25 01:41:16;;;;;;;;;;;;;;;22.19;46.97;95868.91;1046483;28;2115;-57
2021/09/25 01:41:46;;;;;;;;;;;;;;;22.18;47.00;95869.94;1041656;28;1030;-59
2021/09/25 01:42:17;;;;;;;;;;;;;;;22.18;46.99;95875.22;1039839;28;2146;-57
2021/09/25 01:42:47;;;;;;;;;;;;;;;22.18;47.09;95869.16;1044029;28;1360;-59
2021/09/25 01:43:18;;;;;;;;;;;;;;;22.19;47.03;95865.47;1044082;28;1735;-57
2021/09/25 01:43:48;;;;;;;;;;;;;;;22.18;46.89;95869.94;1042485;28;1426;-55
2021/09/25 01:44:18;;;;;;;;;;;;;;;22.17;46.92;95865.75;1042175;28;1574;-58
2021/09/25 01:44:49;;;;;;;;;;;;;;;22.19;46.95;95866.25;1041973;28;1039;-58
2021/09/25 01:45:19;;;;;;;;;;;;;;;22.18;47.03;95869.16;1040828;28;1147;-58
2021/09/25 01:45:50;;;;;;;;;;;;;;;22.18;47.29;95869.16;1040612;28;1163;-58
2021/09/25 01:46:20;;;;;;;;;;;;;;;22.18;46.87;95862.03;1044844;28;1256;-58
2021/09/25 01:46:50;;;;;;;;;;;;;;;22.18;46.81;95867.31;1044734;28;1053;-58
2021/09/25 01:47:21;;;;;;;;;;;;;;;22.21;46.95;95868.63;1043971;28;2104;-56
2021/09/25 01:47:51;;;;;;;;;;;;;;;22.19;46.81;95868.91;1041215;28;1634;-56
2021/09/25 01:48:22;;;;;;;;;;;;;;;22.19;46.85;95871.53;1045262;28;1162;-58
2021/09/25 01:48:52;;;;;;;;;;;;;;;22.18;47.06;95872.59;1048975;28;2552;-57
2021/09/25 01:49:23;;;;;;;;;;;;;;;22.18;46.96;95871.81;1048556;28;1256;-57
2021/09/25 01:49:53;;;;;;;;;;;;;;;22.18;46.88;95864.66;1049332;28;1163;-59
2021/09/25 01:50:23;;;;;;;;;;;;;;;22.19;46.85;95866.25;1049023;28;1075;-55
2021/09/25 01:50:54;;;;;;;;;;;;;;;22.18;46.93;95864.66;1045014;28;1162;-58
2021/09/25 01:51:24;;;;;;;;;;;;;;;22.18;46.87;95869.94;1045175;28;1119;-57
2021/09/25 01:51:54;;;;;;;;;;;;;;;22.20;46.86;95873.09;1045109;28;1096;-57
2021/09/25 01:52:25;;;;;;;;;;;;;;;22.18;47.11;95864.66;1051570;28;2136;-57
2021/09/25 01:52:55;;;;;;;;;;;;;;;22.19;46.88;95865.47;1050809;28;1017;-57
2021/09/25 01:53:25;;;;;;;;;;;;;;;22.18;46.98;95862.03;1051957;28;1454;-57
2021/09/25 01:53:56;;;;;;;;;;;;;;;22.17;46.95;95867.59;1052698;28;902;-57
2021/09/25 01:54:26;;;;;;;;;;;;;;;22.18;46.93;95866.53;1044254;28;1088;-55
2021/09/25 01:54:56;;;;;;;;;;;;;;;22.18;46.76;95859.41;1049408;28;1060;-54
2021/09/25 01:55:27;;;;;;;;;;;;;;;22.18;47.00;95869.94;1048813;28;1167;-58
2021/09/25 01:55:57;;;;;;;;;;;;;;;22.18;46.92;95858.59;1048855;28;1194;-58
2021/09/25 01:56:27;;;;;;;;;;;;;;;22.17;47.11;95865.75;1048793;28;1308;-59
2021/09/25 01:56:58;;;;;;;;;;;;;;;22.17;47.13;95868.41;1045114;28;1069;-57
2021/09/25 01:57:28;;;;;;;;;;;;;;;22.16;47.06;95858.88;1044406;28;2131;-59
2021/09/25 01:57:58;;;;;;;;;;;;;;;22.17;47.13;95860.47;1044831;28;1065;-56
2021/09/25 01:58:28;;;;;;;;;;;;;;;22.17;47.14;95865.75;1045191;28;1221;-56
2021/09/25 01:58:59;;;;;;;;;;;;;;;22.17;47.11;95864.97;1044689;28;1218;-57
2021/09/25 01:59:29;;;;;;;;;;;;;;;22.16;47.11;95864.16;1044272;28;1289;-58
2021/09/25 01:59:59;;;;;;;;;;;;;;;22.17;47.24;95862.31;1044841;28;1076;-59
2021/09/25 02:00:31;;;;;;;;;;;;;;;22.16;47.07;95866.81;1045115;28;1202;-58
2021/09/25 02:01:03;;;;;;;;;;;;;;;22.17;46.89;95863.13;1044938;28;1910;-59
2021/09/25 02:01:33;;;;;;;;;;;;;;;22.17;46.95;95865.75;1043450;28;2091;-58
2021/09/25 02:02:03;;;;;;;;;;;;;;;22.17;47.24;95863.13;1043706;28;1510;-59
2021/09/25 02:02:35;;;;;;;;;;;;;;;22.17;46.88;95868.41;1041430;28;2431;-58
2021/09/25 02:03:07;;;;;;;;;;;;;;;22.15;46.94;95870.53;1045002;28;1092;-59
2021/09/25 02:03:37;;;;;;;;;;;;;;;22.15;47.23;95870.53;1048765;28;1134;-58
2021/09/25 02:04:07;;;;;;;;;;;;;;;22.16;47.07;95866.81;1048902;28;1150;-58
2021/09/25 02:04:38;;;;;;;;;;;;;;;22.17;47.16;95865.75;1048419;28;1300;-58
2021/09/25 02:05:09;;;;;;;;;;;;;;;22.16;47.08;95866.81;1048854;28;1069;-59
2021/09/25 02:05:39;;;;;;;;;;;;;;;22.16;46.94;95872.09;1045225;28;1194;-58
2021/09/25 02:06:10;;;;;;;;;;;;;;;22.15;46.96;95873.16;1044972;28;1236;-58
2021/09/25 02:06:40;;;;;;;;;;;;;;;22.17;47.07;95867.59;1044466;28;1693;-57
2021/09/25 02:07:10;;;;;;;;;;;;;;;22.16;47.08;95872.09;1043183;28;2152;-57
2021/09/25 02:07:41;;;;;;;;;;;;;;;22.17;47.10;95867.59;1040578;28;2444;-58
2021/09/25 02:08:11;;;;;;;;;;;;;;;22.18;46.88;95864.66;1045082;28;1068;-59
2021/09/25 02:08:42;;;;;;;;;;;;;;;22.19;46.91;95871.53;1045008;28;1134;-59
2021/09/25 02:09:12;;;;;;;;;;;;;;;22.17;46.91;95865.75;1043908;28;1773;-57
2021/09/25 02:09:43;;;;;;;;;;;;;;;22.17;46.76;95865.75;1044788;28;1517;-58
2021/09/25 02:10:14;;;;;;;;;;;;;;;22.17;46.88;95873.69;1044746;28;1442;-58
2021/09/25 02:10:44;;;;;;;;;;;;;;;22.17;46.89;95868.41;1045376;28;1142;-56
2021/09/25 02:11:15;;;;;;;;;;;;;;;22.17;46.96;95868.41;1045141;28;1182;-56
2021/09/25 02:11:45;;;;;;;;;;;;;;;22.18;46.92;95871.81;1045091;28;1111;-54
2021/09/25 02:12:16;;;;;;;;;;;;;;;22.16;46.96;95866.81;1044207;28;1186;-57
2021/09/25 02:12:46;;;;;;;;;;;;;;;22.17;47.06;95871.03;1040790;28;2368;-58
2021/09/25 02:13:16;;;;;;;;;;;;;;;22.16;46.97;95873.94;1044396;28;1695;-57
2021/09/25 02:13:47;;;;;;;;;;;;;;;22.17;47.24;95872.88;1044574;28;1222;-56
2021/09/25 02:14:17;;;;;;;;;;;;;;;22.15;47.07;95870.53;1044752;28;1091;-58
2021/09/25 02:14:47;;;;;;;;;;;;;;;22.18;47.16;95874.44;1044587;28;1097;-58
2021/09/25 02:15:18;;;;;;;;;;;;;;;22.17;47.17;95871.03;1045183;28;1138;-59
2021/09/25 02:15:48;;;;;;;;;;;;;;;22.16;46.98;95871.28;1045313;28;1054;-58
2021/09/25 02:16:18;;;;;;;;;;;;;;;22.15;47.15;95870.53;1044853;28;1254;-56
2021/09/25 02:16:49;;;;;;;;;;;;;;;22.15;47.18;95873.16;1045013;28;1069;-58
2021/09/25 02:17:21;;;;;;;;;;;;;;;22.15;46.94;95872.38;1045139;28;1169;-59
2021/09/25 02:17:52;;;;;;;;;;;;;;;22.14;47.06;95871.59;1043625;28;980;-57
2021/09/25 02:18:22;;;;;;;;;;;;;;;22.14;47.21;95868.16;1044045;28;2413;-59
2021/09/25 02:18:53;;;;;;;;;;;;;;;22.14;47.20;95876.06;1045063;28;1093;-56
2021/09/25 02:19:23;;;;;;;;;;;;;;;22.15;46.93;95872.38;1045231;28;1123;-58
2021/09/25 02:19:53;;;;;;;;;;;;;;;22.13;47.13;95872.66;1044419;28;1246;-58
2021/09/25 02:20:24;;;;;;;;;;;;;;;22.13;47.15;95872.66;1044081;28;1315;-56
2021/09/25 02:20:54;;;;;;;;;;;;;;;22.15;47.11;95875.00;1043199;28;1975;-56
2021/09/25 02:21:24;;;;;;;;;;;;;;;22.13;47.38;95872.66;1043999;28;1155;-58
2021/09/25 02:21:55;;;;;;;;;;;;;;;22.14;47.30;95868.16;1044678;28;1199;-59
2021/09/25 02:22:25;;;;;;;;;;;;;;;22.13;47.02;95869.22;1044625;28;1197;-58
2021/09/25 02:22:56;;;;;;;;;;;;;;;22.14;47.27;95874.22;1044073;28;1888;-57
2021/09/25 02:23:26;;;;;;;;;;;;;;;22.13;46.93;95872.66;1047058;28;1564;-59
2021/09/25 02:23:57;;;;;;;;;;;;;;;22.14;47.17;95865.50;1044641;28;1065;-59
2021/09/25 02:24:27;;;;;;;;;;;;;;;22.16;47.18;95871.28;1044039;28;1383;-58
2021/09/25 02:24:57;;;;;;;;;;;;;;;22.15;47.07;95870.53;1044646;28;1317;-59
2021/09/25 02:25:27;;;;;;;;;;;;;;;22.16;47.27;95868.66;1044583;28;1178;-57
2021/09/25 02:25:59;;;;;;;;;;;;;;;22.16;46.99;95861.53;1045470;28;1089;-59
2021/09/25 02:26:29;;;;;;;;;;;;;;;22.16;47.12;95866.00;1044654;28;1316;-58
2021/09/25 02:27:02;;;;;;;;;;;;;;;22.17;46.99;95868.41;1044930;28;1146;-58
2021/09/25 02:27:32;;;;;;;;;;;;;;;22.17;47.31;95860.47;1044949;28;793;-56
2021/09/25 02:28:02;;;;;;;;;;;;;;;22.15;47.23;95865.25;1043682;28;2062;-59
2021/09/25 02:28:33;;;;;;;;;;;;;;;22.16;47.06;95864.16;1041442;28;1541;-57
2021/09/25 02:29:03;;;;;;;;;;;;;;;22.16;47.18;95863.38;1043059;28;1368;-54
2021/09/25 02:29:33;;;;;;;;;;;;;;;22.15;47.06;95859.19;1045036;28;800;-56
2021/09/25 02:30:04;;;;;;;;;;;;;;;22.16;46.97;95863.38;1044535;28;1079;-58
2021/09/25 02:30:34;;;;;;;;;;;;;;;22.16;47.39;95866.00;1044737;28;1413;-53
2021/09/25 02:31:05;;;;;;;;;;;;;;;22.16;47.06;95863.38;1044904;28;1171;-54
2021/09/25 02:31:35;;;;;;;;;;;;;;;22.15;47.04;95865.25;1045276;28;1139;-52
2021/09/25 02:32:06;;;;;;;;;;;;;;;22.14;47.05;95868.16;1044766;28;1115;-57
2021/09/25 02:32:36;;;;;;;;;;;;;;;22.14;47.26;95866.31;1043580;28;901;-56
2021/09/25 02:33:06;;;;;;;;;;;;;;;22.16;47.01;95869.44;1038942;28;2102;-56
2021/09/25 02:33:37;;;;;;;;;;;;;;;22.15;47.04;95869.72;1040622;28;1231;-53
2021/09/25 02:34:07;;;;;;;;;;;;;;;22.15;47.05;95865.25;1040719;28;1101;-55
2021/09/25 02:34:38;;;;;;;;;;;;;;;22.16;47.05;95866.00;1044195;28;1018;-55
2021/09/25 02:35:08;;;;;;;;;;;;;;;22.15;47.08;95873.16;1044566;28;1166;-56
2021/09/25 02:35:40;;;;;;;;;;;;;;;22.14;47.30;95871.59;1045035;28;780;-53
2021/09/25 02:36:11;;;;;;;;;;;;;;;22.14;47.10;95870.78;1044801;28;1390;-59
2021/09/25 02:36:41;;;;;;;;;;;;;;;22.15;47.22;95864.47;1045295;28;1220;-58
2021/09/25 02:37:12;;;;;;;;;;;;;;;22.15;47.06;95867.88;1044957;28;1119;-60
2021/09/25 02:37:43;;;;;;;;;;;;;;;22.17;46.97;95868.41;1042782;28;2452;-59
2021/09/25 02:38:13;;;;;;;;;;;;;;;22.16;47.18;95872.09;1042889;28;2376;-59
2021/09/25 02:38:43;;;;;;;;;;;;;;;22.16;47.10;95866.81;1044984;28;1116;-59
2021/09/25 02:39:14;;;;;;;;;;;;;;;22.15;47.05;95865.25;1045063;28;1158;-59
2021/09/25 02:39:44;;;;;;;;;;;;;;;22.15;47.17;95873.16;1048774;28;1492;-57
2021/09/25 02:40:14;;;;;;;;;;;;;;;22.14;47.17;95870.78;1044641;28;1282;-58
2021/09/25 02:40:45;;;;;;;;;;;;;;;22.14;47.38;95865.50;1044591;28;1176;-58
2021/09/25 02:41:15;;;;;;;;;;;;;;;22.13;47.42;95869.22;1044684;28;1910;-58
2021/09/25 02:41:45;;;;;;;;;;;;;;;22.12;47.24;95868.44;1044741;28;1195;-58
2021/09/25 02:42:16;;;;;;;;;;;;;;;22.13;47.09;95866.59;1046798;28;1110;-57
2021/09/25 02:42:46;;;;;;;;;;;;;;;22.15;47.03;95867.09;1045192;28;1748;-55
2021/09/25 02:43:16;;;;;;;;;;;;;;;22.14;47.08;95870.78;1042958;28;2142;-58
2021/09/25 02:43:47;;;;;;;;;;;;;;;22.14;46.99;95868.94;1045205;28;1127;-59
2021/09/25 02:44:17;;;;;;;;;;;;;;;22.13;47.29;95872.66;1044888;28;1157;-57
2021/09/25 02:44:47;;;;;;;;;;;;;;;22.13;47.12;95867.38;1044830;28;1052;-58